Time;durP1;ratioP1;P1;durP2;ratioP2;P2;SDS_P1;SDS_P2;PMS_P1;PMS_P2;Temp;Humidity;BMP_temperature;BMP_pressure;BME280_temperature;BME280_humidity;BME280_pressure;Samples;Min_cycle;Max_cycle;Signal;HPM_P1;HPM_P2
2022/02/07 00:01:23;;;;;;;5.50;0.93;;;3.90;99.90;;;;;;5083171;28;20550;-54
2022/02/07 00:03:54;;;;;;;3.42;0.30;;;3.50;99.90;;;;;;5089909;28;20443;-57
2022/02/07 00:06:20;;;;;;;4.18;0.43;;;3.50;99.90;;;;;;5086039;28;20839;-57
2022/02/07 00:08:46;;;;;;;3.10;0.50;;;3.60;99.90;;;;;;5079511;28;20533;-57
2022/02/07 00:11:14;;;;;;;8.55;1.70;;;3.70;99.90;;;;;;5085011;28;20420;-57
2022/02/07 00:13:40;;;;;;;5.20;1.23;;;3.70;99.90;;;;;;5093663;28;20396;-56
2022/02/07 00:16:06;;;;;;;4.75;0.65;;;3.90;99.90;;;;;;5086286;28;20394;-56
2022/02/07 00:18:33;;;;;;;3.95;0.80;;;3.90;99.90;;;;;;5089194;28;20892;-56
2022/02/07 00:20:58;;;;;;;7.00;1.60;;;4.00;99.90;;;;;;5086520;28;20414;-57
2022/02/07 00:23:26;;;;;;;3.53;0.60;;;4.00;99.90;;;;;;5082598;28;20404;-55
2022/02/07 00:25:52;;;;;;;3.42;0.82;;;4.10;99.90;;;;;;5082967;28;20400;-56
2022/02/07 00:28:18;;;;;;;5.28;0.98;;;3.90;99.90;;;;;;5079652;28;20396;-55
2022/02/07 00:30:43;;;;;;;4.05;0.70;;;4.00;99.90;;;;;;5080329;28;20460;-56
2022/02/07 00:33:09;;;;;;;5.20;1.17;;;4.10;99.90;;;;;;5080876;28;20949;-55
2022/02/07 00:35:36;;;;;;;6.75;1.65;;;4.00;99.90;;;;;;5085010;28;20446;-56
2022/02/07 00:38:06;;;;;;;6.20;1.98;;;4.10;99.90;;;;;;5083068;28;20697;-58
2022/02/07 00:40:46;;;;;;;3.40;0.50;;;4.20;99.90;;;;;;5082663;28;20419;-56
2022/02/07 00:43:38;;;;;;;5.20;0.90;;;4.10;99.90;;;;;;5083236;28;20395;-55
2022/02/07 00:46:20;;;;;;;3.30;0.52;;;5.60;99.90;;;;;;5083504;28;20389;-58
2022/02/07 00:48:45;;;;;;;4.57;0.90;;;4.00;99.90;;;;;;5084406;28;20386;-57
2022/02/07 00:51:11;;;;;;;3.10;0.40;;;4.10;99.90;;;;;;5083955;28;20378;-57
2022/02/07 00:53:37;;;;;;;3.08;0.40;;;5.70;99.90;;;;;;5087643;28;20390;-57
2022/02/07 00:56:03;;;;;;;3.40;0.43;;;4.00;99.90;;;;;;5086262;28;20411;-57
2022/02/07 00:58:29;;;;;;;3.42;0.30;;;4.10;99.90;;;;;;5087464;28;20388;-58
2022/02/07 01:00:55;;;;;;;2.83;0.30;;;4.10;99.90;;;;;;5081776;28;20511;-58
2022/02/07 01:03:22;;;;;;;3.00;0.30;;;4.00;99.90;;;;;;5086187;28;20871;-57
2022/02/07 01:05:48;;;;;;;3.10;0.50;;;5.40;99.90;;;;;;5092070;28;20385;-57
2022/02/07 01:08:18;;;;;;;4.30;0.30;;;4.10;99.90;;;;;;5081601;28;20536;-57
2022/02/07 01:14:39;;;;;;;3.50;0.40;;;4.20;99.90;;;;;;5070804;28;20457;-58
2022/02/07 01:49:25;;;;;;;3.35;0.50;;;4.30;99.90;;;;;;5080433;28;20411;-57
2022/02/07 01:54:37;;;;;;;4.20;0.70;;;6.00;99.90;;;;;;5089818;28;20462;-58
2022/02/07 01:57:05;;;;;;;4.63;1.10;;;4.30;99.90;;;;;;5089737;28;20377;-58
2022/02/07 01:59:31;;;;;;;3.28;0.55;;;4.30;99.90;;;;;;5090412;28;20385;-58
2022/02/07 02:01:56;;;;;;;4.18;0.75;;;4.30;99.90;;;;;;5088633;28;20438;-58
2022/02/07 02:04:23;;;;;;;3.50;0.60;;;4.30;99.90;;;;;;5089139;28;20917;-57
2022/02/07 02:06:49;;;;;;;3.30;0.40;;;4.70;99.90;;;;;;5090978;28;20402;-57
2022/02/07 02:09:15;;;;;;;4.60;0.50;;;4.20;99.90;;;;;;5088724;28;20517;-57
2022/02/07 02:11:42;;;;;;;4.20;0.45;;;4.60;99.90;;;;;;5089118;28;20487;-57
2022/02/07 02:16:57;;;;;;;4.03;0.40;;;4.30;99.90;;;;;;5083784;28;20477;-57
2022/02/07 02:45:25;;;;;;;3.90;0.60;;;4.40;99.90;;;;;;5089492;28;20374;-58
2022/02/07 02:47:22;;;;;;;4.47;0.50;;;4.40;99.90;;;;;;5089666;28;20463;-57
2022/02/07 02:50:03;;;;;;;3.40;0.60;;;4.50;99.90;;;;;;5090040;28;20438;-56
2022/02/07 02:52:28;;;;;;;5.70;0.75;;;4.20;99.90;;;;;;5089946;28;20489;-56
2022/02/07 02:54:54;;;;;;;3.60;0.60;;;4.00;99.90;;;;;;5090055;28;20457;-56
2022/02/07 02:57:20;;;;;;;7.50;0.60;;;4.80;99.90;;;;;;5089419;28;20378;-56
2022/02/07 02:59:45;;;;;;;4.72;1.05;;;3.90;99.90;;;;;;5089698;28;20447;-56
2022/02/07 03:02:11;;;;;;;4.20;0.60;;;3.80;99.90;;;;;;5089164;28;20414;-56
2022/02/07 03:04:36;;;;;;;6.22;0.80;;;3.80;99.90;;;;;;5089740;28;20386;-56
2022/02/07 03:07:02;;;;;;;3.73;0.73;;;3.50;99.90;;;;;;5087797;28;20855;-57
2022/02/07 03:09:29;;;;;;;3.60;0.80;;;3.40;99.90;;;;;;5089926;28;20448;-54
2022/02/07 03:11:55;;;;;;;4.30;0.98;;;3.40;99.90;;;;;;5088274;28;20390;-58
2022/02/07 03:14:34;;;;;;;3.60;0.70;;;3.40;99.90;;;;;;5089322;28;20393;-57
2022/02/07 03:16:59;;;;;;;3.70;0.80;;;3.50;99.90;;;;;;5089195;28;20877;-58
2022/02/07 03:19:25;;;;;;;3.55;0.80;;;3.70;99.90;;;;;;5089946;28;20409;-56
2022/02/07 03:21:51;;;;;;;6.25;0.95;;;3.80;99.90;;;;;;5089586;28;20871;-57
2022/02/07 03:24:16;;;;;;;3.80;0.77;;;4.30;99.90;;;;;;5088586;28;20859;-58
2022/02/07 03:26:44;;;;;;;3.60;0.80;;;4.80;99.90;;;;;;5089574;28;20371;-56
2022/02/07 03:29:11;;;;;;;3.10;0.60;;;3.60;99.90;;;;;;5088540;28;20772;-54
2022/02/07 03:31:37;;;;;;;3.50;0.70;;;3.10;99.90;;;;;;5089042;28;20976;-55
2022/02/07 03:34:03;;;;;;;3.40;0.70;;;2.80;99.90;;;;;;5088736;28;20382;-55
2022/02/07 03:36:31;;;;;;;2.70;0.40;;;4.30;99.90;;;;;;5089245;28;20374;-54
2022/02/07 03:38:58;;;;;;;3.10;0.40;;;2.40;99.90;;;;;;5088825;28;20374;-56
2022/02/07 03:41:24;;;;;;;3.50;0.85;;;2.20;99.90;;;;;;5087773;28;20961;-55
2022/02/07 03:43:50;;;;;;;4.68;1.48;;;2.30;99.90;;;;;;5087875;28;20469;-54
2022/02/07 03:46:16;;;;;;;4.88;1.70;;;2.20;99.90;;;;;;5088121;28;20455;-54
2022/02/07 03:48:41;;;;;;;5.80;2.33;;;2.10;99.90;;;;;;5089318;28;20386;-54
2022/02/07 03:51:07;;;;;;;7.13;2.40;;;2.10;99.90;;;;;;5089082;28;20735;-55
2022/02/07 03:53:33;;;;;;;6.03;2.20;;;2.10;99.90;;;;;;5092828;28;20377;-55
2022/02/07 03:55:59;;;;;;;6.03;2.67;;;2.10;99.90;;;;;;5092493;28;20393;-56
2022/02/07 03:58:24;;;;;;;8.30;2.57;;;2.20;99.90;;;;;;5092683;28;20469;-56
2022/02/07 04:00:52;;;;;;;8.27;3.10;;;2.30;99.90;;;;;;5092574;28;20409;-56
2022/02/07 04:03:21;;;;;;;5.28;1.50;;;2.30;99.90;;;;;;5092144;28;20390;-54
2022/02/07 04:05:55;;;;;;;13.93;5.90;;;2.80;99.90;;;;;;5083380;28;20378;-55
2022/02/07 04:08:27;;;;;;;12.07;4.30;;;2.30;99.90;;;;;;5077068;28;20829;-54
2022/02/07 04:11:14;;;;;;;15.93;8.20;;;2.40;99.90;;;;;;5085779;28;20390;-54
2022/02/07 04:13:46;;;;;;;19.70;7.88;;;2.40;99.90;;;;;;5072228;28;20421;-55
2022/02/07 04:16:11;;;;;;;14.63;5.30;;;2.30;99.90;;;;;;5071715;28;20934;-54
2022/02/07 04:19:00;;;;;;;14.83;4.77;;;2.40;99.90;;;;;;5071920;28;20407;-54
2022/02/07 04:21:29;;;;;;;12.48;4.05;;;2.30;99.90;;;;;;5072068;28;20491;-54
2022/02/07 04:23:54;;;;;;;9.00;3.53;;;2.20;99.90;;;;;;5072145;28;20445;-54
2022/02/07 04:26:20;;;;;;;13.60;4.40;;;2.60;99.90;;;;;;5071630;28;20392;-55
2022/02/07 04:28:46;;;;;;;12.23;3.78;;;2.30;99.90;;;;;;5072006;28;20461;-54
2022/02/07 04:31:11;;;;;;;26.43;6.47;;;2.60;99.90;;;;;;5078741;28;20504;-54
2022/02/07 04:33:37;;;;;;;12.35;4.20;;;2.30;99.90;;;;;;5092275;28;20382;-54
2022/02/07 04:36:03;;;;;;;17.20;4.13;;;2.20;99.90;;;;;;5090090;28;20810;-54
2022/02/07 04:38:29;;;;;;;17.80;4.53;;;2.20;99.90;;;;;;5091993;28;20421;-54
2022/02/07 04:40:54;;;;;;;14.50;4.60;;;3.40;99.90;;;;;;5085823;28;20402;-54
2022/02/07 04:43:20;;;;;;;19.10;4.72;;;2.30;99.90;;;;;;5072226;28;20628;-54
2022/02/07 04:46:02;;;;;;;12.45;3.15;;;2.20;99.90;;;;;;5082433;28;20421;-54
2022/02/07 04:57:01;;;;;;;2.88;0.38;;;2.10;99.90;;;;;;5094054;28;20436;-55
2022/02/07 04:59:08;;;;;;;3.20;0.50;;;2.10;99.90;;;;;;5110898;28;20429;-55
2022/02/07 05:01:46;;;;;;;6.65;0.70;;;2.10;99.90;;;;;;5111271;28;20413;-54
2022/02/07 05:04:23;;;;;;;4.97;0.60;;;2.10;99.90;;;;;;5111074;28;20380;-53
2022/02/07 05:15:01;;;;;;;4.82;0.73;;;2.10;99.90;;;;;;5104329;28;20409;-55
2022/02/07 05:17:30;;;;;;;7.55;0.70;;;2.10;99.90;;;;;;5100991;28;20413;-53
2022/02/07 05:19:55;;;;;;;3.35;0.70;;;3.50;99.90;;;;;;5097243;28;20397;-54
2022/02/07 05:22:21;;;;;;;5.10;1.00;;;1.70;99.90;;;;;;5105649;28;21194;-54
2022/02/07 05:24:47;;;;;;;8.38;1.00;;;3.40;99.90;;;;;;5095432;28;20376;-53
2022/02/07 05:27:12;;;;;;;5.60;0.70;;;2.10;99.90;;;;;;5102310;28;20386;-53
2022/02/07 05:29:38;;;;;;;4.15;0.70;;;2.20;99.90;;;;;;5102136;28;20372;-53
2022/02/07 05:32:05;;;;;;;5.50;0.90;;;2.60;99.90;;;;;;5094000;28;20421;-54
2022/02/07 05:34:31;;;;;;;5.28;0.77;;;2.20;99.90;;;;;;5092115;28;20425;-53
2022/02/07 05:36:58;;;;;;;6.60;0.70;;;2.30;99.90;;;;;;5083131;28;20388;-54
2022/02/07 05:39:26;;;;;;;8.00;1.00;;;2.30;99.90;;;;;;5099167;28;20391;-54
2022/02/07 05:41:52;;;;;;;8.68;1.10;;;2.30;99.90;;;;;;5078576;28;20413;-54
2022/02/07 05:44:18;;;;;;;6.43;0.95;;;2.30;99.90;;;;;;5073491;28;20467;-54
2022/02/07 05:46:43;;;;;;;5.50;1.00;;;2.30;99.90;;;;;;5092640;28;20412;-54
2022/02/07 05:49:09;;;;;;;7.50;1.30;;;2.30;99.90;;;;;;5089783;28;20862;-56
2022/02/07 05:51:35;;;;;;;5.85;1.20;;;2.40;99.90;;;;;;5073659;28;20460;-56
2022/02/07 05:54:00;;;;;;;5.20;0.80;;;2.30;99.90;;;;;;5072869;28;20383;-57
2022/02/07 05:56:26;;;;;;;4.43;1.00;;;2.40;99.90;;;;;;5070657;28;20387;-56
2022/02/07 05:58:52;;;;;;;5.65;0.80;;;2.40;99.90;;;;;;5077324;28;20710;-56
2022/02/07 06:01:17;;;;;;;6.60;0.80;;;2.40;99.90;;;;;;5092574;28;20411;-54
2022/02/07 06:03:43;;;;;;;6.20;1.07;;;2.40;99.90;;;;;;5089195;28;20410;-54
2022/02/07 06:06:09;;;;;;;4.85;0.80;;;2.40;99.90;;;;;;5078286;28;20932;-56
2022/02/07 06:08:35;;;;;;;6.90;0.90;;;2.50;99.90;;;;;;5081978;28;20378;-56
2022/02/07 06:11:01;;;;;;;6.20;1.10;;;2.50;99.90;;;;;;5081942;28;20392;-57
2022/02/07 06:13:27;;;;;;;7.28;0.80;;;2.60;99.90;;;;;;5081564;28;20379;-56
2022/02/07 06:15:53;;;;;;;4.43;0.95;;;2.50;99.90;;;;;;5097888;28;20419;-56
2022/02/07 06:18:20;;;;;;;5.80;0.75;;;2.50;99.90;;;;;;5093333;28;20996;-55
2022/02/07 06:20:48;;;;;;;6.70;1.15;;;2.50;99.90;;;;;;5104212;28;20410;-54
2022/02/07 06:23:14;;;;;;;4.50;0.80;;;2.50;99.90;;;;;;5076893;28;20387;-56
2022/02/07 06:25:40;;;;;;;6.97;0.90;;;2.60;99.90;;;;;;5084701;28;20412;-56
2022/02/07 06:28:05;;;;;;;6.80;1.07;;;2.60;99.90;;;;;;5084148;28;20460;-56
2022/02/07 06:30:31;;;;;;;3.55;0.80;;;3.80;99.90;;;;;;5087714;28;20394;-56
2022/02/07 06:32:57;;;;;;;10.27;1.35;;;2.60;99.90;;;;;;5089749;28;20914;-56
2022/02/07 06:35:22;;;;;;;5.60;1.50;;;2.60;99.90;;;;;;5089356;28;20382;-55
2022/02/07 06:37:48;;;;;;;6.35;1.20;;;2.50;99.90;;;;;;5089770;28;20374;-55
2022/02/07 06:40:14;;;;;;;6.03;1.60;;;2.60;99.90;;;;;;5087302;28;20390;-56
2022/02/07 06:42:39;;;;;;;10.53;2.40;;;2.60;99.90;;;;;;5082525;28;21096;-55
2022/02/07 06:45:05;;;;;;;6.13;1.20;;;2.60;99.90;;;;;;5073730;28;20367;-56
2022/02/07 06:47:31;;;;;;;6.25;1.40;;;2.60;99.90;;;;;;5089662;28;20378;-55
2022/02/07 06:49:57;;;;;;;5.23;1.03;;;2.60;99.90;;;;;;5078156;28;20474;-55
2022/02/07 06:52:22;;;;;;;7.63;1.00;;;3.00;99.90;;;;;;5068581;28;20452;-53
2022/02/07 06:54:48;;;;;;;4.20;1.23;;;2.50;99.90;;;;;;5067845;28;20469;-54
2022/02/07 06:57:15;;;;;;;5.40;1.30;;;2.60;99.90;;;;;;5068815;28;20407;-56
2022/02/07 06:59:42;;;;;;;9.80;1.75;;;2.60;99.90;;;;;;5069589;28;20383;-56
2022/02/07 07:02:11;;;;;;;10.77;1.30;;;2.70;99.90;;;;;;5068855;28;20761;-56
2022/02/07 07:04:37;;;;;;;5.25;1.00;;;2.80;99.90;;;;;;5074999;28;20503;-54
2022/02/07 07:07:03;;;;;;;6.20;1.20;;;2.60;99.90;;;;;;5088687;28;20401;-54
2022/02/07 07:09:30;;;;;;;8.60;1.30;;;2.60;99.90;;;;;;5089290;28;20475;-54
2022/02/07 07:12:02;;;;;;;4.93;1.55;;;2.50;99.90;;;;;;5089587;28;20388;-53
2022/02/07 07:14:31;;;;;;;4.90;1.25;;;3.50;99.90;;;;;;5089603;28;20410;-54
2022/02/07 07:16:58;;;;;;;8.00;1.50;;;2.60;99.90;;;;;;5089077;28;20386;-54
2022/02/07 07:19:26;;;;;;;7.30;1.47;;;2.60;99.90;;;;;;5087168;28;20821;-54
2022/02/07 07:21:52;;;;;;;5.90;1.02;;;2.60;99.90;;;;;;5089223;28;20413;-54
2022/02/07 07:24:18;;;;;;;8.30;1.38;;;2.60;99.90;;;;;;5087446;28;20473;-54
2022/02/07 07:26:45;;;;;;;5.88;1.35;;;2.50;99.90;;;;;;5092514;28;20461;-54
2022/02/07 07:29:17;;;;;;;9.40;2.00;;;3.20;99.90;;;;;;5092830;28;20393;-56
2022/02/07 07:31:48;;;;;;;5.63;1.57;;;2.80;99.90;;;;;;5093487;28;20378;-54
2022/02/07 07:34:18;;;;;;;5.10;1.33;;;2.80;99.90;;;;;;5091432;28;20394;-57
2022/02/07 07:36:46;;;;;;;9.23;1.65;;;2.90;99.90;;;;;;5089411;28;20940;-56
2022/02/07 07:39:13;;;;;;;5.07;1.25;;;2.90;99.90;;;;;;5084706;28;20715;-56
2022/02/07 07:41:41;;;;;;;5.37;1.07;;;2.90;99.90;;;;;;5092939;28;20409;-54
2022/02/07 07:44:07;;;;;;;5.75;0.90;;;2.90;99.90;;;;;;5075512;28;20413;-57
2022/02/07 07:46:33;;;;;;;7.53;1.75;;;2.90;99.90;;;;;;5081879;28;20395;-57
2022/02/07 07:49:09;;;;;;;7.25;1.63;;;4.10;99.90;;;;;;5085964;28;20477;-57
2022/02/07 07:51:43;;;;;;;6.90;1.02;;;3.50;99.90;;;;;;5074075;28;20379;-57
2022/02/07 08:02:15;;;;;;;8.93;1.70;;;5.10;99.90;;;;;;5082004;28;20492;-57
2022/02/07 08:04:42;;;;;;;7.05;1.33;;;5.20;99.90;;;;;;5084766;28;20425;-56
2022/02/07 08:12:29;;;;;;;5.90;1.52;;;5.40;99.90;;;;;;5063311;28;20422;-57
2022/02/07 08:14:56;;;;;;;7.22;1.10;;;5.70;99.90;;;;;;5089878;28;20390;-56
2022/02/07 08:17:23;;;;;;;9.25;1.40;;;5.80;99.90;;;;;;5075509;28;20396;-56
2022/02/07 08:19:49;;;;;;;8.07;1.30;;;5.90;99.90;;;;;;5072354;28;20448;-56
2022/02/07 08:22:15;;;;;;;7.45;1.30;;;5.90;99.90;;;;;;5090626;28;20443;-57
2022/02/07 08:24:43;;;;;;;6.40;0.90;;;5.90;99.90;;;;;;5092359;28;20374;-56
2022/02/07 08:27:09;;;;;;;5.00;1.15;;;5.90;99.90;;;;;;5090218;28;20394;-57
2022/02/07 08:29:34;;;;;;;6.72;1.50;;;6.20;99.90;;;;;;5092505;28;20414;-57
2022/02/07 08:32:00;;;;;;;4.63;1.17;;;5.70;99.90;;;;;;5082924;28;20440;-57
2022/02/07 08:34:26;;;;;;;9.57;1.10;;;5.90;99.90;;;;;;5087289;28;20403;-57
2022/02/07 08:36:52;;;;;;;6.63;1.38;;;6.40;99.90;;;;;;5071563;28;20376;-54
2022/02/07 08:39:18;;;;;;;5.90;1.10;;;6.70;99.90;;;;;;5085524;28;20405;-54
2022/02/07 08:41:44;;;;;;;8.98;1.80;;;6.60;99.90;;;;;;5091868;28;20420;-55
2022/02/07 08:44:10;;;;;;;5.30;1.02;;;6.20;99.90;;;;;;5091056;28;20382;-55
2022/02/07 08:46:36;;;;;;;4.55;1.10;;;6.40;99.90;;;;;;5090629;28;20413;-55
2022/02/07 08:49:03;;;;;;;6.63;1.40;;;6.90;99.90;;;;;;5091668;28;20394;-56
2022/02/07 08:51:31;;;;;;;8.15;1.00;;;7.00;99.90;;;;;;5080730;28;20423;-55
2022/02/07 08:54:00;;;;;;;8.20;1.80;;;7.00;99.90;;;;;;5080651;28;20383;-56
2022/02/07 08:56:38;;;;;;;5.57;1.20;;;6.60;99.90;;;;;;5084006;28;20411;-56
2022/02/07 08:59:04;;;;;;;6.70;1.50;;;5.50;99.90;;;;;;5091310;28;20374;-57
2022/02/07 09:01:42;;;;;;;8.88;1.25;;;5.30;99.90;;;;;;5088982;28;20463;-58
2022/02/07 09:04:41;;;;;;;7.43;1.30;;;4.80;99.90;;;;;;5070911;28;20861;-59
2022/02/07 09:07:01;;;;;;;6.93;1.50;;;4.70;99.90;;;;;;5088296;28;20478;-56
2022/02/07 09:09:26;;;;;;;8.52;1.20;;;4.80;99.90;;;;;;5089548;28;20942;-56
2022/02/07 09:11:52;;;;;;;8.48;1.90;;;4.90;99.90;;;;;;5089911;28;20489;-56
2022/02/07 09:14:23;;;;;;;8.90;1.90;;;5.00;99.90;;;;;;5090498;28;20385;-56
2022/02/07 09:16:51;;;;;;;6.07;1.50;;;4.70;99.90;;;;;;5091519;28;20427;-56
2022/02/07 09:19:19;;;;;;;7.60;1.40;;;4.70;99.90;;;;;;5090150;28;20485;-56
2022/02/07 09:21:49;;;;;;;7.13;1.63;;;5.40;99.90;;;;;;5091182;28;20416;-56
2022/02/07 09:24:15;;;;;;;7.18;1.50;;;6.30;99.90;;;;;;5090305;28;20410;-56
2022/02/07 09:26:42;;;;;;;7.20;1.70;;;7.50;99.90;;;;;;5089634;28;21214;-56
2022/02/07 09:29:08;;;;;;;5.60;1.35;;;7.40;99.90;;;;;;5090083;28;20378;-56
2022/02/07 09:31:37;;;;;;;7.15;2.10;;;6.80;99.90;;;;;;5091068;28;20874;-56
2022/02/07 09:34:02;;;;;;;7.77;1.27;;;7.90;99.90;;;;;;5077997;28;20411;-57
2022/02/07 09:36:28;;;;;;;7.60;1.35;;;7.00;99.90;;;;;;5077155;28;20734;-56
2022/02/07 09:38:54;;;;;;;7.20;1.83;;;6.30;99.90;;;;;;5083149;28;20532;-57
2022/02/07 09:41:22;;;;;;;7.75;1.90;;;6.40;99.90;;;;;;5085741;28;20417;-57
2022/02/07 09:43:49;;;;;;;6.88;1.40;;;6.90;99.90;;;;;;5092280;28;20488;-56
2022/02/07 09:46:21;;;;;;;7.85;1.35;;;6.40;99.90;;;;;;5083603;28;20406;-56
2022/02/07 09:48:51;;;;;;;8.82;1.60;;;6.20;99.90;;;;;;5090868;28;20871;-57
2022/02/07 09:51:17;;;;;;;8.70;1.40;;;6.00;99.90;;;;;;5092056;28;20492;-57
2022/02/07 09:53:43;;;;;;;7.75;2.00;;;7.00;99.90;;;;;;5076057;28;20481;-56
2022/02/07 09:56:11;;;;;;;8.02;1.10;;;7.20;99.90;;;;;;5066991;28;20412;-57
2022/02/07 09:58:38;;;;;;;6.63;1.30;;;6.30;99.90;;;;;;5080873;28;20559;-56
2022/02/07 10:01:14;;;;;;;4.95;1.10;;;6.30;99.90;;;;;;5087426;28;20887;-57
2022/02/07 10:03:55;;;;;;;8.63;1.80;;;6.00;99.90;;;;;;5084438;28;20767;-56
2022/02/07 10:06:47;;;;;;;6.60;1.50;;;5.60;99.90;;;;;;5080641;28;20443;-56
2022/02/07 10:12:01;;;;;;;5.40;1.30;;;5.10;99.90;;;;;;5089564;28;20393;-56
2022/02/07 10:47:10;;;;;;;5.95;1.48;;;5.60;99.90;;;;;;5089802;28;20394;-59
2022/02/07 10:49:36;;;;;;;6.18;1.02;;;5.60;99.90;;;;;;5089681;28;20409;-58
2022/02/07 10:52:02;;;;;;;8.98;1.40;;;5.40;99.90;;;;;;5090095;28;20739;-58
2022/02/07 10:54:28;;;;;;;6.75;1.60;;;5.50;99.90;;;;;;5089218;28;20385;-58
2022/02/07 10:56:55;;;;;;;8.40;2.00;;;5.50;99.90;;;;;;5088443;28;20394;-58
2022/02/07 10:59:22;;;;;;;8.18;1.90;;;5.60;99.90;;;;;;5087362;28;20439;-58
2022/02/07 11:04:40;;;;;;;9.93;1.70;;;5.30;99.90;;;;;;5088807;28;20385;-58
2022/02/07 11:07:09;;;;;;;10.00;2.00;;;5.30;99.90;;;;;;5089080;28;20378;-59
2022/02/07 11:17:29;;;;;;;6.20;1.38;;;5.30;99.90;;;;;;5088636;28;20442;-57
2022/02/07 11:20:21;;;;;;;6.53;1.38;;;5.30;99.90;;;;;;5089703;28;20413;-58
2022/02/07 11:23:38;;;;;;;6.03;1.37;;;5.30;99.90;;;;;;5089467;28;20399;-57
2022/02/07 11:26:03;;;;;;;7.75;1.75;;;5.20;99.90;;;;;;5086128;28;20397;-57
2022/02/07 11:28:38;;;;;;;8.02;1.90;;;5.20;99.90;;;;;;5089029;28;20398;-57
2022/02/07 11:31:06;;;;;;;8.68;1.60;;;5.10;99.90;;;;;;5089313;28;20435;-58
2022/02/07 11:33:54;;;;;;;10.20;1.77;;;5.10;99.90;;;;;;5089080;28;20913;-58
2022/02/07 11:36:30;;;;;;;4.72;1.10;;;5.60;99.90;;;;;;5087351;28;20398;-58
2022/02/07 11:39:03;;;;;;;8.70;1.42;;;5.30;99.90;;;;;;5089288;28;20886;-57
2022/02/07 11:41:29;;;;;;;10.07;1.70;;;5.30;99.90;;;;;;5088543;28;20403;-57
2022/02/07 11:43:56;;;;;;;7.40;1.45;;;5.40;99.90;;;;;;5088952;28;20408;-57
2022/02/07 11:46:22;;;;;;;6.43;1.13;;;5.30;99.90;;;;;;5088662;28;20451;-58
2022/02/07 11:48:51;;;;;;;10.27;1.65;;;6.70;99.90;;;;;;5089295;28;20428;-57
2022/02/07 11:51:26;;;;;;;8.65;1.60;;;5.30;99.90;;;;;;5088456;28;20439;-57
2022/02/07 11:53:58;;;;;;;5.87;1.30;;;5.40;99.90;;;;;;5088985;28;20374;-57
2022/02/07 11:57:10;;;;;;;7.35;1.88;;;5.50;99.90;;;;;;5088358;28;20374;-58
2022/02/07 11:59:39;;;;;;;6.90;1.40;;;5.60;99.90;;;;;;5080082;28;20481;-57
2022/02/07 12:02:19;;;;;;;9.33;1.90;;;5.60;99.90;;;;;;5088573;28;20841;-58
2022/02/07 12:04:45;;;;;;;9.10;2.13;;;5.70;99.90;;;;;;5089081;28;20448;-57
2022/02/07 12:07:26;;;;;;;6.53;1.30;;;5.60;99.90;;;;;;5088415;28;20426;-57
2022/02/07 12:09:59;;;;;;;7.78;1.80;;;5.40;99.90;;;;;;5089064;28;20465;-57
2022/02/07 12:12:41;;;;;;;7.07;1.48;;;5.40;99.90;;;;;;5090324;28;20389;-57
2022/02/07 12:15:32;;;;;;;10.85;1.60;;;5.70;99.90;;;;;;5091619;28;20428;-58
2022/02/07 12:18:11;;;;;;;17.15;2.10;;;5.70;99.90;;;;;;5092805;28;20409;-57
2022/02/07 12:20:37;;;;;;;9.18;1.85;;;5.80;99.90;;;;;;5091213;28;20448;-57
2022/02/07 12:23:17;;;;;;;9.90;1.40;;;5.80;99.90;;;;;;5092378;28;20737;-57
2022/02/07 12:25:52;;;;;;;7.90;1.70;;;5.70;99.90;;;;;;5091498;28;20390;-57
2022/02/07 12:28:31;;;;;;;8.25;1.58;;;5.60;99.90;;;;;;5091110;28;20435;-57
2022/02/07 12:33:38;;;;;;;8.65;1.75;;;5.80;99.90;;;;;;5092097;28;20461;-57
2022/02/07 12:36:05;;;;;;;6.35;1.30;;;5.70;99.90;;;;;;5091849;28;20434;-57
2022/02/07 12:38:34;;;;;;;8.27;2.20;;;5.50;99.90;;;;;;5091317;28;20887;-57
2022/02/07 12:41:03;;;;;;;6.00;1.60;;;5.40;99.90;;;;;;5090458;28;20406;-56
2022/02/07 12:43:33;;;;;;;7.10;1.40;;;5.50;99.90;;;;;;5090478;28;20458;-57
2022/02/07 12:46:00;;;;;;;6.57;1.70;;;5.60;99.90;;;;;;5089596;28;20882;-56
2022/02/07 12:48:33;;;;;;;6.75;1.40;;;5.50;99.90;;;;;;5091032;28;20393;-57
2022/02/07 12:50:59;;;;;;;8.68;1.40;;;5.40;99.90;;;;;;5089489;28;20386;-56
2022/02/07 12:53:28;;;;;;;6.45;1.30;;;5.50;99.90;;;;;;5090816;28;20401;-57
2022/02/07 12:55:57;;;;;;;9.98;1.40;;;5.70;99.90;;;;;;5090778;28;20959;-57
2022/02/07 12:58:37;;;;;;;5.90;1.30;;;5.50;99.90;;;;;;5090709;28;20377;-57
2022/02/07 13:01:20;;;;;;;6.13;1.35;;;5.40;99.90;;;;;;5091795;28;20459;-58
2022/02/07 13:04:08;;;;;;;6.75;1.75;;;5.40;99.90;;;;;;5091611;28;20906;-57
2022/02/07 13:07:05;;;;;;;10.20;1.77;;;5.40;99.90;;;;;;5090941;28;20807;-57
2022/02/07 13:09:40;;;;;;;8.57;1.60;;;5.50;99.90;;;;;;5087366;28;20963;-57
2022/02/07 13:14:40;;;;;;;8.05;2.00;;;5.40;99.90;;;;;;5090616;28;20439;-57
2022/02/07 13:17:07;;;;;;;8.50;2.10;;;5.40;99.90;;;;;;5089022;28;20397;-57
2022/02/07 13:19:44;;;;;;;6.28;2.00;;;5.60;99.90;;;;;;5090719;28;20401;-56
2022/02/07 13:22:15;;;;;;;7.03;2.20;;;5.40;99.90;;;;;;5090844;28;20492;-57
2022/02/07 13:24:41;;;;;;;5.50;1.70;;;5.50;99.90;;;;;;5090575;28;20382;-57
2022/02/07 13:27:11;;;;;;;8.82;1.48;;;6.10;99.90;;;;;;5091606;28;20388;-57
2022/02/07 13:29:46;;;;;;;8.15;1.70;;;5.50;99.90;;;;;;5090930;28;20374;-57
2022/02/07 13:32:18;;;;;;;6.70;1.30;;;5.50;99.90;;;;;;5089455;28;20504;-59
2022/02/07 13:34:46;;;;;;;8.63;1.55;;;5.40;99.90;;;;;;5090956;28;20439;-56
2022/02/07 13:37:16;;;;;;;10.95;1.90;;;5.50;99.90;;;;;;5090073;28;20382;-57
2022/02/07 13:40:01;;;;;;;4.80;1.30;;;5.50;99.90;;;;;;5090934;28;20492;-58
2022/02/07 13:42:40;;;;;;;8.07;1.77;;;5.40;99.90;;;;;;5089992;28;20401;-58
2022/02/07 13:45:10;;;;;;;7.80;1.60;;;5.50;99.90;;;;;;5090824;28;20413;-58
2022/02/07 13:47:38;;;;;;;6.90;1.40;;;5.60;99.90;;;;;;5090559;28;20481;-58
2022/02/07 13:50:07;;;;;;;7.45;2.08;;;5.60;99.90;;;;;;5090760;28;20699;-58
2022/02/07 13:52:36;;;;;;;9.80;1.80;;;5.70;99.90;;;;;;5089810;28;20859;-58
2022/02/07 13:55:17;;;;;;;5.35;1.48;;;5.80;99.90;;;;;;5090780;28;20431;-58
2022/02/07 13:58:01;;;;;;;6.43;1.70;;;5.60;99.90;;;;;;5090861;28;20375;-58
2022/02/07 14:00:47;;;;;;;9.32;2.15;;;5.60;99.90;;;;;;5089831;28;20382;-58
2022/02/07 14:03:20;;;;;;;5.35;1.58;;;5.70;99.90;;;;;;5090244;28;20378;-57
2022/02/07 14:05:52;;;;;;;5.03;1.40;;;6.00;99.90;;;;;;5089165;28;20409;-56
2022/02/07 14:08:39;;;;;;;7.10;1.20;;;6.10;99.90;;;;;;5089611;28;20820;-59
2022/02/07 14:11:08;;;;;;;8.10;2.30;;;6.00;99.90;;;;;;5090557;28;20382;-58
2022/02/07 14:13:36;;;;;;;8.23;1.50;;;6.10;99.90;;;;;;5085601;28;20390;-56
2022/02/07 14:16:07;;;;;;;5.68;1.27;;;6.10;99.90;;;;;;5084555;28;20385;-56
2022/02/07 14:18:35;;;;;;;9.55;1.45;;;5.80;99.90;;;;;;5081863;28;20420;-57
2022/02/07 14:21:08;;;;;;;7.60;1.30;;;5.80;99.90;;;;;;5082638;28;20417;-56
2022/02/07 14:23:34;;;;;;;9.52;1.85;;;5.70;99.90;;;;;;5080251;28;20433;-59
2022/02/07 14:26:04;;;;;;;7.43;1.77;;;6.90;99.90;;;;;;5071469;28;20407;-59
2022/02/07 14:28:30;;;;;;;6.03;1.35;;;5.70;99.90;;;;;;5075868;28;20400;-60
2022/02/07 14:30:57;;;;;;;5.82;1.40;;;5.60;99.90;;;;;;5078379;28;20480;-60
2022/02/07 14:33:24;;;;;;;5.40;1.30;;;6.60;99.90;;;;;;5074590;28;20770;-59
2022/02/07 14:35:50;;;;;;;8.10;2.03;;;5.50;99.90;;;;;;5077769;28;20428;-59
2022/02/07 14:38:15;;;;;;;7.32;1.95;;;5.60;99.90;;;;;;5087448;28;20397;-58
2022/02/07 14:40:42;;;;;;;7.30;2.10;;;5.60;99.90;;;;;;5079504;28;20845;-59
2022/02/07 14:43:10;;;;;;;7.90;2.00;;;6.20;99.90;;;;;;5086102;28;20418;-59
2022/02/07 14:45:41;;;;;;;6.85;1.70;;;5.70;99.90;;;;;;5079352;28;20407;-59
2022/02/07 14:48:07;;;;;;;7.40;1.60;;;5.60;99.90;;;;;;5076877;28;20810;-59
2022/02/07 14:50:34;;;;;;;8.30;1.83;;;5.70;99.90;;;;;;5078329;28;20395;-58
2022/02/07 14:53:00;;;;;;;7.53;1.58;;;5.60;99.90;;;;;;5086070;28;20471;-59
2022/02/07 14:55:26;;;;;;;6.00;1.38;;;5.50;99.90;;;;;;5074160;28;20387;-57
2022/02/07 14:57:52;;;;;;;5.50;1.70;;;5.40;99.90;;;;;;5075425;28;20391;-57
2022/02/07 15:00:28;;;;;;;8.30;1.50;;;5.30;99.90;;;;;;5073244;28;20745;-57
2022/02/07 15:02:57;;;;;;;9.38;1.90;;;5.30;99.90;;;;;;5072287;28;20419;-58
2022/02/07 15:05:23;;;;;;;8.88;2.15;;;5.30;99.90;;;;;;5082009;28;20382;-58
2022/02/07 15:07:49;;;;;;;8.02;1.52;;;5.20;99.90;;;;;;5087416;28;20382;-58
2022/02/07 15:10:14;;;;;;;6.00;1.30;;;5.10;99.90;;;;;;5084736;28;20831;-58
2022/02/07 15:12:40;;;;;;;5.00;1.40;;;5.10;99.90;;;;;;5084445;28;20390;-59
2022/02/07 15:15:06;;;;;;;8.27;1.80;;;5.10;99.90;;;;;;5083514;28;21251;-58
2022/02/07 15:17:32;;;;;;;6.40;1.75;;;5.10;99.90;;;;;;5080725;28;21017;-59
2022/02/07 15:19:58;;;;;;;9.07;2.07;;;5.10;99.90;;;;;;5081527;28;20378;-59
2022/02/07 15:22:25;;;;;;;11.85;1.73;;;5.20;99.90;;;;;;5085170;28;20990;-58
2022/02/07 15:24:51;;;;;;;7.72;1.70;;;5.00;99.90;;;;;;5081189;28;20807;-58
2022/02/07 15:27:17;;;;;;;7.77;1.70;;;5.00;99.90;;;;;;5083460;28;20390;-58
2022/02/07 15:29:44;;;;;;;5.00;1.38;;;5.00;99.90;;;;;;5079077;28;21487;-58
2022/02/07 15:35:01;;;;;;;9.80;1.70;;;5.00;99.90;;;;;;5082758;28;20378;-59
2022/02/07 15:37:29;;;;;;;9.48;2.00;;;4.90;99.90;;;;;;5082011;28;20387;-59